createdAt,value
2023-01-19T00:01:53.197Z,4.63
2023-01-19T00:04:20.977Z,4.45
2023-01-19T00:06:48.773Z,4.60
2023-01-19T00:09:16.322Z,4.68
2023-01-19T00:11:44.289Z,4.85
2023-01-19T00:14:12.089Z,4.43
2023-01-19T00:16:39.913Z,4.70
2023-01-19T00:19:09.828Z,4.87
2023-01-19T00:21:39.922Z,4.88
2023-01-19T00:24:08.102Z,4.32
2023-01-19T00:26:35.797Z,4.50
2023-01-19T00:29:04.732Z,4.97
2023-01-19T00:31:36.639Z,4.47
2023-01-19T00:34:05.375Z,4.50
2023-01-19T00:36:35.372Z,4.43
2023-01-19T00:39:03.353Z,4.90
2023-01-19T00:41:45.083Z,4.97
2023-01-19T00:44:13.640Z,4.73
2023-01-19T00:46:41.459Z,5.32
2023-01-19T00:49:09.532Z,4.97
2023-01-19T00:51:38.912Z,4.82
2023-01-19T00:54:10.384Z,5.55
2023-01-19T00:56:38.474Z,4.70
2023-01-19T00:59:06.320Z,5.20
2023-01-19T01:01:46.098Z,5.50
2023-01-19T01:04:15.226Z,5.35
2023-01-19T01:06:44.706Z,4.72
2023-01-19T01:09:13.084Z,4.33
2023-01-19T01:11:41.108Z,5.13
2023-01-19T01:14:10.266Z,4.90
2023-01-19T01:16:38.433Z,4.85
2023-01-19T01:19:06.292Z,4.95
2023-01-19T01:21:35.849Z,5.63
2023-01-19T01:24:05.663Z,5.88
2023-01-19T01:26:33.557Z,5.60
2023-01-19T01:29:01.593Z,5.15
2023-01-19T01:31:30.251Z,5.63
2023-01-19T01:33:57.974Z,4.63
2023-01-19T01:36:29.199Z,5.78
2023-01-19T01:38:57.122Z,6.15
2023-01-19T01:41:27.519Z,5.30
2023-01-19T01:43:58.614Z,5.65
2023-01-19T01:46:28.272Z,5.67
2023-01-19T01:49:03.015Z,6.07
2023-01-19T01:51:34.490Z,5.95
2023-01-19T01:54:15.202Z,5.25
2023-01-19T01:56:46.953Z,5.60
2023-01-19T01:59:26.306Z,5.33
2023-01-19T02:02:14.687Z,4.55
2023-01-19T02:04:47.951Z,5.65
2023-01-19T02:07:38.772Z,5.43
2023-01-19T02:10:24.534Z,5.35
2023-01-19T02:13:13.250Z,6.03
2023-01-19T02:19:27.723Z,5.15
2023-01-19T02:21:59.989Z,4.68
2023-01-19T02:24:29.385Z,4.75
2023-01-19T02:26:57.896Z,4.80
2023-01-19T02:29:27.859Z,4.97
2023-01-19T02:31:57.437Z,5.10
2023-01-19T02:34:25.099Z,5.40
2023-01-19T02:36:55.203Z,4.68
2023-01-19T02:39:29.051Z,5.13
2023-01-19T02:42:02.839Z,4.88
2023-01-19T02:44:31.701Z,4.95
2023-01-19T02:46:59.479Z,5.25
2023-01-19T02:49:29.587Z,5.20
2023-01-19T02:51:57.943Z,6.97
2023-01-19T02:54:46.843Z,6.03
2023-01-19T02:57:28.499Z,6.57
2023-01-19T03:00:09.661Z,6.25
2023-01-19T03:02:49.782Z,5.70
2023-01-19T03:05:27.741Z,6.20
2023-01-19T03:08:02.457Z,6.05
2023-01-19T03:10:37.607Z,5.63
2023-01-19T03:13:12.706Z,5.50
2023-01-19T03:15:46.766Z,5.32
2023-01-19T03:18:16.491Z,5.40
2023-01-19T03:20:45.034Z,5.30
2023-01-19T03:23:16.895Z,5.70
2023-01-19T03:25:46.524Z,6.15
2023-01-19T03:28:17.547Z,6.68
2023-01-19T03:30:51.562Z,5.97
2023-01-19T03:33:26.737Z,6.43
2023-01-19T03:35:58.860Z,6.00
2023-01-19T03:38:27.914Z,5.40
2023-01-19T03:40:59.342Z,5.03
2023-01-19T03:43:29.684Z,5.43
2023-01-19T03:45:57.882Z,5.97
2023-01-19T03:48:26.058Z,5.07
2023-01-19T03:50:54.037Z,4.93
2023-01-19T03:53:22.608Z,5.38
2023-01-19T03:55:53.563Z,5.03
2023-01-19T03:58:22.242Z,4.88
2023-01-19T04:00:51.304Z,5.15
2023-01-19T04:03:19.949Z,6.10
2023-01-19T04:05:47.823Z,5.45
2023-01-19T04:08:15.508Z,5.50
2023-01-19T04:10:43.301Z,5.15
2023-01-19T04:13:10.952Z,5.15
2023-01-19T04:15:38.766Z,5.22
2023-01-19T04:18:08.349Z,6.43
2023-01-19T04:20:36.072Z,5.20
2023-01-19T04:23:04.211Z,5.65
2023-01-19T04:25:31.942Z,5.60
2023-01-19T04:27:59.551Z,5.50
2023-01-19T04:30:27.527Z,6.28
2023-01-19T04:38:58.462Z,7.35
2023-01-19T04:41:27.871Z,12.75
2023-01-19T04:43:56.569Z,9.00
2023-01-19T04:46:24.469Z,6.60
2023-01-19T04:48:52.954Z,5.50
2023-01-19T04:51:22.104Z,5.95
2023-01-19T04:53:50.014Z,7.80
2023-01-19T04:56:17.833Z,13.52
2023-01-19T04:58:45.796Z,9.70
2023-01-19T05:01:14.165Z,7.18
2023-01-19T05:03:42.040Z,6.80
2023-01-19T05:06:10.142Z,6.38
2023-01-19T05:08:39.249Z,5.72
2023-01-19T05:11:07.152Z,6.20
2023-01-19T05:13:35.210Z,6.18
2023-01-19T05:16:03.494Z,5.80
2023-01-19T05:18:36.126Z,6.47
2023-01-19T05:21:04.154Z,6.82
2023-01-19T05:23:32.972Z,6.00
2023-01-19T05:26:04.286Z,6.60
2023-01-19T05:28:34.201Z,6.00
2023-01-19T05:31:01.970Z,6.80
2023-01-19T05:33:30.475Z,11.30
2023-01-19T05:35:58.140Z,15.83
2023-01-19T05:38:34.925Z,12.52
2023-01-19T05:41:04.989Z,12.50
2023-01-19T05:43:33.437Z,18.17
2023-01-19T05:46:01.091Z,10.77
2023-01-19T05:48:29.005Z,8.07
2023-01-19T05:51:00.592Z,9.23
2023-01-19T05:53:28.609Z,9.18
2023-01-19T05:56:01.432Z,8.57
2023-01-19T05:58:30.876Z,11.05
2023-01-19T06:00:58.861Z,8.83
2023-01-19T06:03:26.956Z,7.15
2023-01-19T06:05:55.687Z,7.25
2023-01-19T06:08:23.592Z,8.93
2023-01-19T06:10:51.755Z,7.50
2023-01-19T06:13:19.801Z,8.87
2023-01-19T06:15:49.633Z,9.43
2023-01-19T06:18:17.304Z,12.45
2023-01-19T06:20:45.340Z,10.38
2023-01-19T06:23:13.318Z,10.15
2023-01-19T06:25:41.120Z,12.37
2023-01-19T06:28:08.775Z,11.50
2023-01-19T06:30:36.765Z,11.82
2023-01-19T06:33:06.537Z,10.13
2023-01-19T06:35:35.864Z,9.07
2023-01-19T06:38:04.720Z,8.77
2023-01-19T06:40:32.581Z,9.27
2023-01-19T06:43:00.499Z,9.27
2023-01-19T06:45:28.572Z,9.60
2023-01-19T06:47:56.244Z,10.45
2023-01-19T06:50:25.431Z,9.53
2023-01-19T06:52:53.523Z,10.13
2023-01-19T06:55:21.424Z,10.30
2023-01-19T06:57:57.224Z,10.38
2023-01-19T07:00:25.424Z,11.18
2023-01-19T07:02:53.817Z,10.73
2023-01-19T07:05:22.096Z,14.20
2023-01-19T07:07:54.618Z,15.13
2023-01-19T07:10:23.445Z,13.15
2023-01-19T07:12:51.438Z,10.95
2023-01-19T07:15:22.705Z,10.40
2023-01-19T07:17:50.729Z,10.32
2023-01-19T07:20:20.061Z,10.23
2023-01-19T07:22:48.889Z,10.70
2023-01-19T07:25:18.619Z,10.68
2023-01-19T07:27:46.243Z,10.23
2023-01-19T07:30:16.221Z,10.50
2023-01-19T07:32:43.914Z,10.85
2023-01-19T07:35:12.163Z,11.85
2023-01-19T07:37:41.174Z,12.02
2023-01-19T07:40:10.890Z,10.40
2023-01-19T07:42:40.168Z,11.40
2023-01-19T07:45:08.942Z,11.27
2023-01-19T07:47:36.592Z,11.32
2023-01-19T07:50:04.684Z,11.40
2023-01-19T07:52:32.622Z,11.47
2023-01-19T07:55:00.283Z,12.95
2023-01-19T07:57:28.721Z,13.10
2023-01-19T07:59:58.044Z,12.75
2023-01-19T08:02:25.857Z,11.82
2023-01-19T08:04:53.791Z,12.10
2023-01-19T08:07:21.475Z,12.10
2023-01-19T08:09:49.163Z,11.77
2023-01-19T08:12:17.466Z,10.55
2023-01-19T08:14:45.225Z,9.30
2023-01-19T08:17:14.801Z,10.47
2023-01-19T08:19:43.827Z,10.35
2023-01-19T08:22:13.675Z,11.40
2023-01-19T08:24:41.520Z,11.63
2023-01-19T08:27:11.514Z,10.68
2023-01-19T08:29:39.280Z,9.47
2023-01-19T08:32:07.339Z,9.13
2023-01-19T08:34:36.472Z,8.50
2023-01-19T08:37:04.608Z,11.10
2023-01-19T08:39:32.794Z,7.68
2023-01-19T08:42:00.865Z,6.53
2023-01-19T08:44:28.554Z,5.75
2023-01-19T08:46:56.755Z,6.15
2023-01-19T08:49:26.017Z,6.10
2023-01-19T08:51:55.261Z,6.30
2023-01-19T08:54:24.318Z,5.63
2023-01-19T08:56:52.097Z,6.60
2023-01-19T08:59:19.708Z,5.90
2023-01-19T09:01:47.998Z,5.80
2023-01-19T09:04:15.848Z,5.95
2023-01-19T09:06:43.603Z,5.30
2023-01-19T09:09:12.584Z,5.55
2023-01-19T09:11:40.649Z,5.63
2023-01-19T09:14:08.448Z,6.10
2023-01-19T09:16:36.286Z,6.15
2023-01-19T09:19:04.400Z,6.93
2023-01-19T09:21:32.304Z,5.75
2023-01-19T09:24:00.825Z,5.63
2023-01-19T09:26:31.656Z,7.70
2023-01-19T09:29:01.799Z,5.60
2023-01-19T09:31:31.758Z,4.70
2023-01-19T09:33:59.797Z,6.40
2023-01-19T09:36:27.626Z,5.50
2023-01-19T09:38:55.699Z,4.93
2023-01-19T09:41:25.950Z,4.07
2023-01-19T09:43:58.797Z,6.70
2023-01-19T09:46:31.321Z,3.95
2023-01-19T09:49:05.206Z,3.42
2023-01-19T09:51:36.043Z,5.72
2023-01-19T09:54:12.233Z,4.80
2023-01-19T09:56:40.274Z,3.90
2023-01-19T09:59:20.663Z,4.03
2023-01-19T10:02:02.041Z,4.15
2023-01-19T10:04:37.588Z,4.68
2023-01-19T10:07:13.516Z,4.55
2023-01-19T10:10:03.752Z,4.27
2023-01-19T10:12:44.523Z,3.80
2023-01-19T10:15:24.221Z,4.70
2023-01-19T10:18:04.059Z,5.20
2023-01-19T10:20:36.362Z,5.28
2023-01-19T10:23:16.560Z,5.17
2023-01-19T10:25:45.280Z,8.35
2023-01-19T10:28:15.206Z,6.50
2023-01-19T10:30:47.375Z,6.63
2023-01-19T10:33:15.549Z,4.80
2023-01-19T10:35:45.123Z,7.00
2023-01-19T10:38:18.510Z,5.80
2023-01-19T10:40:51.938Z,7.10
2023-01-19T10:43:42.900Z,4.55
2023-01-19T10:46:23.122Z,5.18
2023-01-19T10:48:53.354Z,5.23
2023-01-19T10:51:21.702Z,5.38
2023-01-19T10:54:01.723Z,4.47
2023-01-19T10:56:33.836Z,4.70
2023-01-19T10:59:03.693Z,4.15
2023-01-19T11:01:36.869Z,4.57
2023-01-19T11:04:21.619Z,3.50
2023-01-19T11:06:49.457Z,3.58
2023-01-19T11:09:19.844Z,3.25
2023-01-19T11:11:51.037Z,3.55
2023-01-19T11:14:21.109Z,2.93
2023-01-19T11:16:54.416Z,3.40
2023-01-19T11:19:27.195Z,3.10
2023-01-19T11:22:10.336Z,3.17
2023-01-19T11:24:40.156Z,3.08
2023-01-19T11:27:08.296Z,3.63
2023-01-19T11:29:39.099Z,3.83
2023-01-19T11:32:22.377Z,3.35
2023-01-19T11:34:51.522Z,3.50
2023-01-19T11:37:31.751Z,3.20
2023-01-19T11:40:02.755Z,3.80
2023-01-19T11:42:34.359Z,4.20
2023-01-19T11:45:12.452Z,4.07
2023-01-19T11:47:45.386Z,4.55
2023-01-19T11:50:22.438Z,5.40
2023-01-19T11:52:56.606Z,5.23
2023-01-19T11:55:34.260Z,4.43
2023-01-19T11:58:05.066Z,3.90
2023-01-19T12:00:37.676Z,3.38
2023-01-19T12:03:18.398Z,3.70
2023-01-19T12:05:50.164Z,3.37
2023-01-19T12:08:21.665Z,4.63
2023-01-19T12:10:51.951Z,4.68
2023-01-19T12:13:22.953Z,4.68
2023-01-19T12:15:54.292Z,6.32
2023-01-19T12:18:25.992Z,5.50
2023-01-19T12:20:55.641Z,4.47
2023-01-19T12:23:36.121Z,4.68
2023-01-19T12:26:34.307Z,4.25
2023-01-19T12:29:07.534Z,4.22
2023-01-19T12:31:35.687Z,4.90
2023-01-19T12:34:41.145Z,3.85
2023-01-19T12:37:43.845Z,4.85
2023-01-19T12:40:25.974Z,4.22
2023-01-19T12:43:00.665Z,4.53
2023-01-19T12:45:32.736Z,4.97
2023-01-19T12:48:02.096Z,4.55
2023-01-19T12:50:36.145Z,4.20
2023-01-19T12:53:07.980Z,4.50
2023-01-19T12:55:46.504Z,4.18
2023-01-19T12:58:18.001Z,4.67
2023-01-19T13:00:47.088Z,5.80
2023-01-19T13:03:46.499Z,5.53
2023-01-19T13:06:15.589Z,5.82
2023-01-19T13:09:04.036Z,4.55
2023-01-19T13:11:34.578Z,4.90
2023-01-19T13:14:35.125Z,4.93
2023-01-19T13:17:29.317Z,3.40
2023-01-19T13:20:24.548Z,2.80
2023-01-19T13:23:17.481Z,2.92
2023-01-19T13:25:49.274Z,3.13
2023-01-19T13:28:19.398Z,3.53
2023-01-19T13:30:56.952Z,2.83
2023-01-19T13:33:27.736Z,2.40
2023-01-19T13:35:58.952Z,2.55
2023-01-19T13:38:30.064Z,2.63
2023-01-19T13:41:01.108Z,2.90
2023-01-19T13:43:33.226Z,4.22
2023-01-19T13:46:01.622Z,4.72
2023-01-19T13:48:29.404Z,2.70
2023-01-19T13:51:02.543Z,3.10
2023-01-19T13:53:32.619Z,2.70
2023-01-19T13:56:16.948Z,4.35
2023-01-19T13:58:45.050Z,2.30
2023-01-19T14:01:23.844Z,2.58
2023-01-19T14:03:52.593Z,2.33
2023-01-19T14:06:32.156Z,2.53
2023-01-19T14:09:17.838Z,3.17
2023-01-19T14:11:47.075Z,4.22
2023-01-19T14:14:26.575Z,5.25
2023-01-19T14:16:55.225Z,6.70
2023-01-19T14:19:23.591Z,4.97
2023-01-19T14:22:03.134Z,6.95
2023-01-19T14:24:33.420Z,6.47
2023-01-19T14:27:19.350Z,5.20
2023-01-19T14:29:50.699Z,4.10
2023-01-19T14:32:19.722Z,5.40
2023-01-19T14:34:50.645Z,4.40
2023-01-19T14:37:21.692Z,3.85
2023-01-19T14:39:52.967Z,4.65
2023-01-19T14:42:26.995Z,3.47
2023-01-19T14:44:56.981Z,3.00
2023-01-19T14:47:37.996Z,3.38
2023-01-19T14:50:22.447Z,3.40
2023-01-19T14:52:53.094Z,2.97
2023-01-19T14:55:26.312Z,4.10
2023-01-19T14:57:55.690Z,3.53
2023-01-19T15:00:24.198Z,2.97
2023-01-19T15:02:52.034Z,3.30
2023-01-19T15:05:20.103Z,2.75
2023-01-19T15:07:48.189Z,2.47
2023-01-19T15:10:20.751Z,2.85
2023-01-19T15:12:49.870Z,2.40
2023-01-19T15:15:19.494Z,3.50
2023-01-19T15:17:48.015Z,2.40
2023-01-19T15:20:18.543Z,2.37
2023-01-19T15:22:46.788Z,3.00
2023-01-19T15:25:16.507Z,3.47
2023-01-19T15:27:44.902Z,4.88
2023-01-19T15:30:24.796Z,4.78
2023-01-19T15:32:52.449Z,4.33
2023-01-19T15:35:21.992Z,4.20
2023-01-19T15:37:51.305Z,4.07
2023-01-19T15:40:22.647Z,3.80
2023-01-19T15:42:50.723Z,4.25
2023-01-19T15:45:36.806Z,3.87
2023-01-19T15:48:06.220Z,4.88
2023-01-19T15:50:36.644Z,3.97
2023-01-19T15:53:04.653Z,4.28
2023-01-19T15:55:32.311Z,5.07
2023-01-19T15:58:03.016Z,4.77
2023-01-19T16:00:31.568Z,5.40
2023-01-19T16:03:02.532Z,6.70
2023-01-19T16:05:42.509Z,11.68
2023-01-19T16:08:11.750Z,16.38
2023-01-19T16:10:39.801Z,16.87
2023-01-19T16:13:07.471Z,15.55
2023-01-19T16:15:35.523Z,16.02
2023-01-19T16:18:05.090Z,16.33
2023-01-19T16:20:33.176Z,18.75
2023-01-19T16:23:14.535Z,12.97
2023-01-19T16:25:42.931Z,10.60
2023-01-19T16:28:10.687Z,9.15
2023-01-19T16:30:38.503Z,6.80
2023-01-19T16:33:08.415Z,7.47
2023-01-19T16:35:38.419Z,6.63
2023-01-19T16:38:06.077Z,7.25
2023-01-19T16:40:33.870Z,6.88
2023-01-19T16:43:01.642Z,8.00
2023-01-19T16:45:29.542Z,8.50
2023-01-19T16:47:57.301Z,8.33
2023-01-19T16:50:26.461Z,7.57
2023-01-19T16:52:57.471Z,7.90
2023-01-19T16:55:25.253Z,8.70
2023-01-19T16:57:52.968Z,9.13
2023-01-19T17:00:21.130Z,7.50
2023-01-19T17:02:48.901Z,7.50
2023-01-19T17:05:16.637Z,7.30
2023-01-19T17:07:45.890Z,6.88
2023-01-19T17:10:14.015Z,6.35
2023-01-19T17:12:41.670Z,5.73
2023-01-19T17:15:10.385Z,5.43
2023-01-19T17:17:38.231Z,4.40
2023-01-19T17:20:07.383Z,3.67
2023-01-19T17:22:36.555Z,3.80
2023-01-19T17:25:06.455Z,3.27
2023-01-19T17:27:36.053Z,3.53
2023-01-19T17:30:04.337Z,3.30
2023-01-19T17:32:32.056Z,3.00
2023-01-19T17:34:59.691Z,3.10
2023-01-19T17:37:27.507Z,3.30
2023-01-19T17:39:56.115Z,3.50
2023-01-19T17:42:25.442Z,3.63
2023-01-19T17:44:53.270Z,3.97
2023-01-19T17:47:24.624Z,4.70
2023-01-19T17:49:52.282Z,4.67
2023-01-19T17:52:20.527Z,4.45
2023-01-19T17:54:48.134Z,5.03
2023-01-19T17:57:15.777Z,3.90
2023-01-19T17:59:47.372Z,4.00
2023-01-19T18:02:15.098Z,4.90
2023-01-19T18:04:43.004Z,4.93
2023-01-19T18:07:10.918Z,6.60
2023-01-19T18:09:38.660Z,5.57
2023-01-19T18:12:06.758Z,4.97
2023-01-19T18:14:35.048Z,3.93
2023-01-19T18:17:04.130Z,2.75
2023-01-19T18:19:31.777Z,3.58
2023-01-19T18:21:59.753Z,5.13
2023-01-19T18:24:27.892Z,4.88
2023-01-19T18:26:55.907Z,7.87
2023-01-19T18:29:24.470Z,7.82
2023-01-19T18:31:52.362Z,6.10
2023-01-19T18:34:21.745Z,4.72
2023-01-19T18:36:49.904Z,3.90
2023-01-19T18:39:17.989Z,3.90
2023-01-19T18:41:45.876Z,3.88
2023-01-19T18:44:14.218Z,3.35
2023-01-19T18:46:41.891Z,4.60
2023-01-19T18:49:10.352Z,4.93
2023-01-19T18:51:40.471Z,5.10
2023-01-19T18:54:09.437Z,5.47
2023-01-19T18:56:39.187Z,4.05
2023-01-19T18:59:07.222Z,4.40
2023-01-19T19:01:37.967Z,5.65
2023-01-19T19:04:08.182Z,5.10
2023-01-19T19:06:36.090Z,4.60
2023-01-19T19:09:08.383Z,5.35
2023-01-19T19:11:36.591Z,5.35
2023-01-19T19:14:04.758Z,5.00
2023-01-19T19:16:35.485Z,5.60
2023-01-19T19:19:08.448Z,4.65
2023-01-19T19:21:36.773Z,5.10
2023-01-19T19:24:04.926Z,4.25
2023-01-19T19:26:36.759Z,5.40
2023-01-19T19:29:05.288Z,5.23
2023-01-19T19:31:33.254Z,4.65
2023-01-19T19:34:01.416Z,3.83
2023-01-19T19:36:30.182Z,3.50
2023-01-19T19:38:59.968Z,4.78
2023-01-19T19:41:29.352Z,3.63
2023-01-19T19:43:58.785Z,4.82
2023-01-19T19:46:27.719Z,5.55
2023-01-19T19:48:55.855Z,6.65
2023-01-19T19:51:26.991Z,5.53
2023-01-19T19:53:56.914Z,5.00
2023-01-19T19:56:29.310Z,4.78
2023-01-19T19:59:01.103Z,4.90
2023-01-19T20:01:33.546Z,5.22
2023-01-19T20:04:06.940Z,5.72
2023-01-19T20:06:38.764Z,6.97
2023-01-19T20:09:09.137Z,6.95
2023-01-19T20:11:38.124Z,6.97
2023-01-19T20:14:08.002Z,6.85
2023-01-19T20:16:36.744Z,6.43
2023-01-19T20:19:05.627Z,6.17
2023-01-19T20:21:35.870Z,5.75
2023-01-19T20:24:06.221Z,6.00
2023-01-19T20:26:37.367Z,5.18
2023-01-19T20:29:07.934Z,5.10
2023-01-19T20:31:40.712Z,4.23
2023-01-19T20:34:11.217Z,5.13
2023-01-19T20:36:41.355Z,4.80
2023-01-19T20:39:14.164Z,5.32
2023-01-19T20:41:45.170Z,4.93
2023-01-19T20:44:16.199Z,6.63
2023-01-19T20:46:45.017Z,6.00
2023-01-19T20:49:13.354Z,6.43
2023-01-19T20:51:43.464Z,6.70
2023-01-19T20:54:11.743Z,6.15
2023-01-19T20:56:41.517Z,5.83
2023-01-19T20:59:09.987Z,3.75
2023-01-19T21:01:40.380Z,3.95
2023-01-19T21:04:08.815Z,3.28
2023-01-19T21:06:37.330Z,4.72
2023-01-19T21:09:05.675Z,6.97
2023-01-19T21:11:33.816Z,6.40
2023-01-19T21:14:01.963Z,5.75
2023-01-19T21:16:31.868Z,4.40
2023-01-19T21:19:01.452Z,3.78
2023-01-19T21:21:31.484Z,3.50
2023-01-19T21:24:01.590Z,3.90
2023-01-19T21:26:31.145Z,4.07
2023-01-19T21:28:59.227Z,3.78
2023-01-19T21:31:27.993Z,4.22
2023-01-19T21:33:56.495Z,4.23
2023-01-19T21:36:27.747Z,4.85
2023-01-19T21:39:01.113Z,4.53
2023-01-19T21:41:30.263Z,6.32
2023-01-19T21:43:58.546Z,7.88
2023-01-19T21:46:29.009Z,6.07
2023-01-19T21:48:57.753Z,6.30
2023-01-19T21:51:27.279Z,5.03
2023-01-19T21:53:59.621Z,4.90
2023-01-19T21:56:29.072Z,5.05
2023-01-19T21:58:57.970Z,4.60
2023-01-19T22:01:26.308Z,3.33
2023-01-19T22:03:54.725Z,4.07
2023-01-19T22:06:23.301Z,3.53
2023-01-19T22:08:52.812Z,3.30
2023-01-19T22:11:27.783Z,3.20
2023-01-19T22:13:56.243Z,2.97
2023-01-19T22:16:24.469Z,3.40
2023-01-19T22:18:54.159Z,3.45
2023-01-19T22:21:24.445Z,3.55
2023-01-19T22:23:55.187Z,3.70
2023-01-19T22:26:23.802Z,3.95
2023-01-19T22:28:56.156Z,3.58
2023-01-19T22:31:24.997Z,3.78
2023-01-19T22:33:53.158Z,3.45
2023-01-19T22:36:22.623Z,4.37
2023-01-19T22:38:52.576Z,4.72
2023-01-19T22:41:23.517Z,3.80
2023-01-19T22:43:54.640Z,5.30
2023-01-19T22:46:24.010Z,4.65
2023-01-19T22:48:52.768Z,5.00
2023-01-19T22:51:22.319Z,4.78
2023-01-19T22:53:50.557Z,4.53
2023-01-19T22:56:20.333Z,4.68
2023-01-19T22:58:49.866Z,4.22
2023-01-19T23:01:20.439Z,4.27
2023-01-19T23:03:49.003Z,4.63
2023-01-19T23:06:18.919Z,5.05
2023-01-19T23:08:47.273Z,4.30
2023-01-19T23:11:17.465Z,4.78
2023-01-19T23:13:46.228Z,4.93
2023-01-19T23:16:15.287Z,4.57
2023-01-19T23:18:44.207Z,4.28
2023-01-19T23:21:14.609Z,4.07
2023-01-19T23:23:42.720Z,4.10
2023-01-19T23:26:12.238Z,4.53
2023-01-19T23:28:41.549Z,4.00
2023-01-19T23:31:18.407Z,3.65
2023-01-19T23:33:46.736Z,4.15
2023-01-19T23:36:15.267Z,4.13
2023-01-19T23:38:43.617Z,4.00
2023-01-19T23:41:11.324Z,3.97
2023-01-19T23:43:39.497Z,4.10
2023-01-19T23:46:09.466Z,4.00
2023-01-19T23:48:39.060Z,4.05
2023-01-19T23:51:08.251Z,4.53
2023-01-19T23:53:36.438Z,3.92
2023-01-19T23:56:11.803Z,4.45
2023-01-19T23:58:40.131Z,4.68
